createdAt,value
2018-08-17T00:01:21.776Z,54.30
2018-08-17T00:03:54.939Z,54.30
2018-08-17T00:06:28.165Z,54.30
2018-08-17T00:09:03.501Z,54.60
2018-08-17T00:11:37.580Z,54.70
2018-08-17T00:14:12.079Z,54.60
2018-08-17T00:16:47.052Z,54.30
2018-08-17T00:19:19.226Z,54.30
2018-08-17T00:21:50.638Z,54.70
2018-08-17T00:24:22.860Z,54.80
2018-08-17T00:26:57.309Z,54.70
2018-08-17T00:29:29.206Z,54.80
2018-08-17T00:32:00.038Z,54.90
2018-08-17T00:34:32.910Z,54.90
2018-08-17T00:37:10.486Z,55.00
2018-08-17T00:39:42.113Z,55.40
2018-08-17T00:42:13.750Z,55.50
2018-08-17T00:44:44.502Z,55.70
2018-08-17T00:47:16.123Z,56.20
2018-08-17T00:49:46.567Z,55.90
2018-08-17T00:52:17.480Z,56.00
2018-08-17T00:54:47.767Z,55.60
2018-08-17T00:57:18.650Z,55.70
2018-08-17T00:59:49.311Z,55.80
2018-08-17T01:02:20.019Z,55.90
2018-08-17T01:04:50.425Z,56.10
2018-08-17T01:07:20.899Z,56.30
2018-08-17T01:09:51.265Z,56.10
2018-08-17T01:12:21.616Z,56.00
2018-08-17T01:14:52.477Z,56.10
2018-08-17T01:17:23.139Z,56.10
2018-08-17T01:19:54.691Z,56.20
2018-08-17T01:22:25.132Z,56.10
2018-08-17T01:24:55.965Z,56.30
2018-08-17T01:27:27.462Z,56.50
2018-08-17T01:29:57.958Z,56.50
2018-08-17T01:32:31.522Z,56.50
2018-08-17T01:35:03.018Z,56.50
2018-08-17T01:37:34.264Z,56.30
2018-08-17T01:40:05.461Z,56.40
2018-08-17T01:42:36.174Z,56.40
2018-08-17T01:45:06.863Z,56.60
2018-08-17T01:47:38.597Z,56.70
2018-08-17T01:50:10.695Z,56.80
2018-08-17T01:52:42.598Z,56.80
2018-08-17T01:55:14.134Z,56.70
2018-08-17T01:57:44.850Z,56.50
2018-08-17T02:00:15.160Z,56.50
2018-08-17T02:02:45.787Z,56.80
2018-08-17T02:05:16.162Z,56.80
2018-08-17T02:07:46.487Z,56.70
2018-08-17T02:10:16.872Z,57.10
2018-08-17T02:12:47.284Z,56.90
2018-08-17T02:15:18.424Z,56.90
2018-08-17T02:17:49.142Z,56.90
2018-08-17T02:20:19.556Z,56.80
2018-08-17T02:22:49.877Z,56.90
2018-08-17T02:25:20.233Z,56.90
2018-08-17T02:27:50.715Z,56.80
2018-08-17T02:30:22.150Z,56.90
2018-08-17T02:32:52.500Z,56.90
2018-08-17T02:35:22.813Z,56.70
2018-08-17T02:37:53.146Z,56.90
2018-08-17T02:40:23.513Z,57.10
2018-08-17T02:42:53.907Z,57.10
2018-08-17T02:45:24.329Z,57.00
2018-08-17T02:47:54.776Z,57.10
2018-08-17T02:50:25.157Z,57.20
2018-08-17T02:52:55.515Z,57.40
2018-08-17T02:55:25.809Z,57.30
2018-08-17T02:57:56.431Z,57.60
2018-08-17T03:00:27.040Z,57.60
2018-08-17T03:02:57.562Z,58.40
2018-08-17T03:05:28.310Z,57.90
2018-08-17T03:07:58.706Z,58.00
2018-08-17T03:10:29.362Z,58.00
2018-08-17T03:12:59.724Z,57.90
2018-08-17T03:15:30.057Z,58.00
2018-08-17T03:18:00.409Z,58.00
2018-08-17T03:20:30.785Z,58.10
2018-08-17T03:23:01.174Z,58.10
2018-08-17T03:25:31.544Z,58.10
2018-08-17T03:28:01.890Z,57.80
2018-08-17T03:30:32.245Z,57.90
2018-08-17T03:33:02.593Z,58.00
2018-08-17T03:35:32.934Z,58.20
2018-08-17T03:38:03.334Z,58.50
2018-08-17T03:40:33.697Z,58.50
2018-08-17T03:43:04.115Z,58.40
2018-08-17T03:45:34.409Z,58.10
2018-08-17T03:48:04.833Z,58.20
2018-08-17T03:50:35.245Z,58.10
2018-08-17T03:53:05.780Z,58.10
2018-08-17T03:55:36.133Z,58.20
2018-08-17T03:58:07.130Z,58.30
2018-08-17T04:00:37.454Z,58.30
2018-08-17T04:03:07.837Z,58.50
2018-08-17T04:05:38.184Z,58.70
2018-08-17T04:08:08.475Z,58.80
2018-08-17T04:10:38.800Z,58.70
2018-08-17T04:13:09.127Z,58.60
2018-08-17T04:15:39.787Z,58.70
2018-08-17T04:18:10.404Z,58.90
2018-08-17T04:20:40.843Z,58.90
2018-08-17T04:23:11.236Z,58.90
2018-08-17T04:25:41.934Z,58.90
2018-08-17T04:28:12.305Z,58.80
2018-08-17T04:30:43.001Z,58.80
2018-08-17T04:33:14.950Z,58.80
2018-08-17T04:35:45.376Z,59.40
2018-08-17T04:38:15.856Z,58.80
2018-08-17T04:40:46.347Z,58.70
2018-08-17T04:43:16.842Z,58.70
2018-08-17T04:45:47.399Z,58.70
2018-08-17T04:48:17.782Z,58.70
2018-08-17T04:50:48.189Z,58.70
2018-08-17T04:53:19.090Z,58.60
2018-08-17T04:55:49.518Z,59.20
2018-08-17T04:58:20.721Z,58.60
2018-08-17T05:00:51.058Z,58.60
2018-08-17T05:03:21.489Z,58.80
2018-08-17T05:05:51.795Z,58.70
2018-08-17T05:08:22.152Z,58.80
2018-08-17T05:10:52.540Z,58.70
2018-08-17T05:13:23.014Z,58.50
2018-08-17T05:15:53.326Z,58.30
2018-08-17T05:18:23.691Z,58.30
2018-08-17T05:20:54.082Z,58.10
2018-08-17T05:23:24.744Z,57.80
2018-08-17T05:25:55.084Z,57.90
2018-08-17T05:28:25.428Z,57.90
2018-08-17T05:30:55.796Z,57.70
2018-08-17T05:33:26.475Z,57.80
2018-08-17T05:35:56.857Z,57.80
2018-08-17T05:38:27.834Z,57.50
2018-08-17T05:40:58.839Z,57.40
2018-08-17T05:43:29.725Z,57.50
2018-08-17T05:46:00.919Z,57.40
2018-08-17T05:48:33.193Z,57.30
2018-08-17T05:51:03.687Z,57.00
2018-08-17T05:53:34.009Z,57.00
2018-08-17T05:56:04.308Z,56.80
2018-08-17T05:58:34.594Z,56.20
2018-08-17T06:01:04.998Z,56.20
2018-08-17T06:03:35.301Z,56.20
2018-08-17T06:06:05.672Z,55.70
2018-08-17T06:08:35.948Z,55.70
2018-08-17T06:11:06.453Z,55.70
2018-08-17T06:13:36.725Z,55.30
2018-08-17T06:16:07.445Z,54.80
2018-08-17T06:18:37.832Z,54.20
2018-08-17T06:21:08.208Z,54.30
2018-08-17T06:23:38.724Z,53.80
2018-08-17T06:26:09.260Z,53.50
2018-08-17T06:28:39.746Z,53.00
2018-08-17T06:31:10.161Z,52.30
2018-08-17T06:33:40.646Z,52.10
2018-08-17T06:36:11.249Z,51.90
2018-08-17T06:38:41.993Z,51.50
2018-08-17T06:41:12.606Z,50.40
2018-08-17T06:43:42.958Z,49.60
2018-08-17T06:46:19.957Z,50.00
2018-08-17T06:48:50.519Z,49.40
2018-08-17T06:51:21.107Z,48.90
2018-08-17T06:53:51.425Z,48.60
2018-08-17T06:56:21.945Z,48.90
2018-08-17T06:58:52.389Z,48.30
2018-08-17T07:01:22.867Z,47.80
2018-08-17T07:03:53.269Z,48.00
2018-08-17T07:06:23.681Z,47.00
2018-08-17T07:08:54.080Z,46.70
2018-08-17T07:11:24.419Z,46.40
2018-08-17T07:13:54.757Z,45.90
2018-08-17T07:16:25.153Z,45.60
2018-08-17T07:18:55.493Z,45.30
2018-08-17T07:21:26.059Z,43.10
2018-08-17T07:23:56.567Z,41.90
2018-08-17T07:26:27.122Z,41.30
2018-08-17T07:28:57.673Z,40.80
2018-08-17T07:31:28.888Z,40.90
2018-08-17T07:34:05.276Z,39.30
2018-08-17T07:36:36.330Z,39.00
2018-08-17T07:39:08.738Z,39.00
2018-08-17T07:41:39.227Z,38.50
2018-08-17T07:44:09.592Z,38.30
2018-08-17T07:46:40.007Z,38.30
2018-08-17T07:49:10.785Z,38.10
2018-08-17T07:51:41.109Z,37.60
2018-08-17T07:54:11.990Z,38.10
2018-08-17T07:56:42.336Z,37.20
2018-08-17T07:59:12.891Z,36.90
2018-08-17T08:01:47.707Z,36.60
2018-08-17T08:04:18.166Z,36.80
2018-08-17T08:06:48.930Z,36.70
2018-08-17T08:09:19.284Z,36.70
2018-08-17T08:11:49.672Z,35.40
2018-08-17T08:14:20.080Z,36.40
2018-08-17T08:16:50.423Z,36.50
2018-08-17T08:19:21.022Z,35.60
2018-08-17T08:21:51.514Z,34.40
2018-08-17T08:24:21.866Z,34.20
2018-08-17T08:26:52.216Z,33.80
2018-08-17T08:29:22.563Z,33.60
2018-08-17T08:31:53.044Z,32.70
2018-08-17T08:34:23.561Z,31.70
2018-08-17T08:36:54.061Z,32.20
2018-08-17T08:39:24.467Z,31.60
2018-08-17T08:41:54.821Z,30.80
2018-08-17T08:44:25.338Z,30.00
2018-08-17T08:46:55.893Z,30.70
2018-08-17T08:49:26.314Z,30.10
2018-08-17T08:51:56.642Z,30.10
2018-08-17T08:54:27.066Z,29.80
2018-08-17T08:56:57.643Z,28.90
2018-08-17T08:59:32.174Z,28.60
2018-08-17T09:02:02.446Z,28.20
2018-08-17T09:04:32.820Z,28.20
2018-08-17T09:07:03.080Z,28.30
2018-08-17T09:09:33.419Z,28.00
2018-08-17T09:12:03.806Z,26.50
2018-08-17T09:14:34.175Z,26.50
2018-08-17T09:18:28.918Z,27.00
2018-08-17T09:20:59.251Z,27.60
2018-08-17T09:23:29.630Z,26.80
2018-08-17T09:25:59.986Z,27.50
2018-08-17T09:28:30.381Z,26.00
2018-08-17T09:31:00.682Z,26.00
2018-08-17T09:33:31.022Z,25.60
2018-08-17T09:36:01.344Z,25.00
2018-08-17T09:38:31.693Z,25.70
2018-08-17T09:41:02.093Z,26.00
2018-08-17T09:43:32.407Z,25.60
2018-08-17T09:46:02.695Z,26.80
2018-08-17T09:48:33.090Z,25.00
2018-08-17T09:51:03.567Z,24.70
2018-08-17T09:53:33.964Z,24.40
2018-08-17T09:56:04.290Z,24.00
2018-08-17T09:58:38.581Z,24.70
2018-08-17T10:01:14.082Z,24.70
2018-08-17T10:03:48.801Z,23.80
2018-08-17T10:06:24.323Z,23.80
2018-08-17T10:08:59.918Z,24.20
2018-08-17T10:11:30.238Z,24.30
2018-08-17T10:14:00.602Z,23.50
2018-08-17T10:16:30.917Z,23.80
2018-08-17T10:19:01.242Z,23.80
2018-08-17T10:21:39.318Z,23.20
2018-08-17T10:24:09.297Z,23.50
2018-08-17T10:26:40.764Z,23.20
2018-08-17T10:29:11.345Z,21.90
2018-08-17T10:31:41.931Z,21.90
2018-08-17T10:34:12.562Z,21.10
2018-08-17T10:36:43.413Z,21.30
2018-08-17T10:39:13.799Z,21.90
2018-08-17T10:41:44.193Z,23.60
2018-08-17T10:44:15.146Z,22.10
2018-08-17T10:46:45.513Z,23.10
2018-08-17T10:49:15.886Z,22.40
2018-08-17T10:51:46.198Z,22.50
2018-08-17T10:54:17.030Z,22.50
2018-08-17T10:56:47.794Z,22.10
2018-08-17T10:59:18.109Z,22.20
2018-08-17T11:01:48.409Z,21.20
2018-08-17T11:04:18.917Z,21.40
2018-08-17T11:06:49.210Z,20.40
2018-08-17T11:09:19.758Z,19.90
2018-08-17T11:11:50.083Z,20.80
2018-08-17T11:14:20.729Z,20.40
2018-08-17T11:16:51.077Z,21.20
2018-08-17T11:19:21.750Z,21.60
2018-08-17T11:21:52.404Z,21.70
2018-08-17T11:24:22.870Z,21.70
2018-08-17T11:26:53.285Z,22.50
2018-08-17T11:29:23.757Z,21.50
2018-08-17T11:31:54.779Z,22.80
2018-08-17T11:34:25.481Z,22.70
2018-08-17T11:36:55.935Z,22.80
2018-08-17T11:39:26.321Z,22.60
2018-08-17T11:41:56.632Z,23.00
2018-08-17T11:44:27.038Z,23.00
2018-08-17T11:47:00.646Z,23.20
2018-08-17T11:49:31.192Z,23.20
2018-08-17T11:52:01.886Z,22.30
2018-08-17T11:54:32.258Z,21.00
2018-08-17T11:57:02.694Z,19.40
2018-08-17T11:59:33.019Z,19.00
2018-08-17T12:02:03.391Z,18.80
2018-08-17T12:04:33.606Z,17.50
2018-08-17T12:07:04.202Z,18.20
2018-08-17T12:09:35.348Z,17.90
2018-08-17T12:12:05.966Z,17.90
2018-08-17T12:14:36.326Z,17.60
2018-08-17T12:17:06.727Z,17.50
2018-08-17T12:19:37.063Z,16.30
2018-08-17T12:22:14.198Z,16.30
2018-08-17T12:24:44.959Z,16.30
2018-08-17T12:27:15.250Z,15.50
2018-08-17T12:29:46.070Z,16.00
2018-08-17T12:32:16.501Z,15.60
2018-08-17T12:34:46.826Z,15.70
2018-08-17T12:37:17.416Z,16.80
2018-08-17T12:39:48.225Z,16.10
2018-08-17T12:42:18.816Z,17.00
2018-08-17T12:44:49.250Z,17.50
2018-08-17T12:47:19.706Z,17.90
2018-08-17T12:49:50.453Z,18.30
2018-08-17T12:52:21.213Z,18.90
2018-08-17T12:54:51.565Z,18.50
2018-08-17T12:57:22.085Z,19.00
2018-08-17T13:00:06.289Z,19.00
2018-08-17T13:02:37.721Z,20.00
2018-08-17T13:05:08.179Z,21.00
2018-08-17T13:07:39.193Z,19.70
2018-08-17T13:10:10.709Z,18.90
2018-08-17T13:12:42.282Z,17.80
2018-08-17T13:15:13.816Z,16.90
2018-08-17T13:17:46.675Z,15.90
2018-08-17T13:20:18.091Z,15.50
2018-08-17T13:22:50.063Z,14.60
2018-08-17T13:25:21.082Z,14.50
2018-08-17T13:27:51.371Z,14.30
2018-08-17T13:30:21.827Z,14.20
2018-08-17T13:32:52.257Z,14.40
2018-08-17T13:35:23.211Z,14.10
2018-08-17T13:37:54.069Z,15.00
2018-08-17T13:40:24.964Z,16.30
2018-08-17T13:42:57.228Z,17.00
2018-08-17T13:45:28.084Z,17.70
2018-08-17T13:47:58.777Z,18.80
2018-08-17T13:50:30.555Z,18.90
2018-08-17T13:53:00.956Z,19.50
2018-08-17T13:55:32.263Z,19.30
2018-08-17T13:58:03.110Z,20.10
2018-08-17T14:00:34.028Z,20.00
2018-08-17T14:03:06.781Z,20.20
2018-08-17T14:05:37.716Z,21.10
2018-08-17T14:08:08.133Z,21.00
2018-08-17T14:10:38.739Z,20.30
2018-08-17T14:13:09.096Z,20.70
2018-08-17T14:15:39.424Z,21.10
2018-08-17T14:18:09.858Z,21.40
2018-08-17T14:20:40.714Z,22.20
2018-08-17T14:23:11.361Z,24.20
2018-08-17T14:25:41.764Z,23.70
2018-08-17T14:28:12.125Z,24.50
2018-08-17T14:30:42.535Z,24.40
2018-08-17T14:33:12.856Z,26.40
2018-08-17T14:35:43.792Z,29.00
2018-08-17T14:38:15.183Z,33.00
2018-08-17T14:40:45.450Z,33.40
2018-08-17T14:43:15.872Z,35.40
2018-08-17T14:45:46.206Z,37.20
2018-08-17T14:48:16.989Z,38.60
2018-08-17T14:50:47.455Z,42.70
2018-08-17T14:53:18.022Z,45.20
2018-08-17T14:55:52.430Z,47.20
2018-08-17T14:58:22.878Z,48.00
2018-08-17T15:00:53.541Z,53.30
2018-08-17T15:03:24.665Z,59.80
2018-08-17T15:05:55.083Z,61.70
2018-08-17T15:08:26.058Z,57.20
2018-08-17T15:10:56.449Z,61.60
2018-08-17T15:13:27.181Z,63.10
2018-08-17T15:15:58.731Z,62.30
2018-08-17T15:18:29.333Z,62.50
2018-08-17T15:20:59.683Z,66.20
2018-08-17T15:23:30.765Z,69.00
2018-08-17T15:26:01.141Z,69.00
2018-08-17T15:28:32.513Z,70.20
2018-08-17T15:31:02.861Z,73.20
2018-08-17T15:33:33.310Z,75.30
2018-08-17T15:36:03.834Z,77.00
2018-08-17T15:38:34.262Z,75.90
2018-08-17T15:41:04.790Z,76.20
2018-08-17T15:43:35.220Z,76.10
2018-08-17T15:46:05.605Z,75.90
2018-08-17T15:48:42.854Z,75.70
2018-08-17T15:51:14.502Z,76.30
2018-08-17T15:53:45.257Z,75.00
2018-08-17T15:56:15.872Z,73.60
2018-08-17T15:58:46.295Z,72.60
2018-08-17T16:01:16.692Z,72.90
2018-08-17T16:03:47.106Z,73.60
2018-08-17T16:06:17.577Z,73.60
2018-08-17T16:08:47.955Z,72.50
2018-08-17T16:11:18.265Z,72.40
2018-08-17T16:13:48.607Z,70.40
2018-08-17T16:16:19.150Z,70.90
2018-08-17T16:18:49.470Z,71.80
2018-08-17T16:21:20.121Z,72.10
2018-08-17T16:23:50.485Z,71.90
2018-08-17T16:26:21.653Z,71.60
2018-08-17T16:28:52.053Z,68.60
2018-08-17T16:31:30.178Z,65.50
2018-08-17T16:34:00.605Z,62.80
2018-08-17T16:36:31.066Z,61.60
2018-08-17T16:39:01.554Z,59.60
2018-08-17T16:41:31.894Z,55.50
2018-08-17T16:44:02.229Z,54.00
2018-08-17T16:46:32.574Z,53.10
2018-08-17T16:49:07.147Z,52.00
2018-08-17T16:51:37.622Z,51.70
2018-08-17T16:54:08.060Z,49.80
2018-08-17T16:56:38.621Z,50.30
2018-08-17T16:59:09.049Z,49.90
2018-08-17T17:01:39.371Z,48.00
2018-08-17T17:04:09.782Z,48.80
2018-08-17T17:06:40.118Z,48.80
2018-08-17T17:09:11.454Z,50.20
2018-08-17T17:11:42.126Z,51.80
2018-08-17T17:14:12.592Z,53.20
2018-08-17T17:16:47.929Z,52.60
2018-08-17T17:19:20.692Z,51.60
2018-08-17T17:21:51.998Z,50.60
2018-08-17T17:24:26.534Z,52.10
2018-08-17T17:26:56.857Z,52.90
2018-08-17T17:29:31.501Z,54.10
2018-08-17T17:32:01.980Z,55.50
2018-08-17T17:34:32.447Z,57.10
2018-08-17T17:37:02.758Z,58.70
2018-08-17T17:39:33.127Z,60.50
2018-08-17T17:42:03.570Z,61.30
2018-08-17T17:44:34.007Z,62.90
2018-08-17T17:47:04.410Z,63.60
2018-08-17T17:49:34.927Z,64.00
2018-08-17T17:52:18.454Z,64.00
2018-08-17T17:54:49.244Z,64.70
2018-08-17T17:57:20.069Z,65.60
2018-08-17T17:59:56.538Z,67.10
2018-08-17T18:02:28.343Z,67.00
2018-08-17T18:04:58.641Z,67.60
2018-08-17T18:07:39.361Z,67.90
2018-08-17T18:10:09.787Z,68.10
2018-08-17T18:12:40.124Z,69.00
2018-08-17T18:15:10.506Z,69.00
2018-08-17T18:17:40.990Z,69.70
2018-08-17T18:20:13.346Z,69.70
2018-08-17T18:22:43.767Z,69.60
2018-08-17T18:25:18.292Z,69.60
2018-08-17T18:27:49.462Z,69.90
2018-08-17T18:30:20.009Z,70.50
2018-08-17T18:32:50.436Z,70.10
2018-08-17T18:35:21.236Z,69.10
2018-08-17T18:37:51.614Z,69.30
2018-08-17T18:40:22.002Z,69.60
2018-08-17T18:42:52.373Z,69.40
2018-08-17T18:45:22.786Z,69.20
2018-08-17T18:47:53.081Z,69.20
2018-08-17T18:50:23.485Z,69.60
2018-08-17T18:52:54.398Z,70.30
2018-08-17T18:55:24.718Z,70.50
2018-08-17T18:57:55.091Z,70.70
2018-08-17T19:00:25.505Z,70.60
2018-08-17T19:02:56.021Z,71.10
2018-08-17T19:05:32.492Z,71.20
2018-08-17T19:08:03.030Z,71.00
2018-08-17T19:10:33.433Z,71.00
2018-08-17T19:13:05.106Z,71.00
2018-08-17T19:15:50.580Z,71.00
2018-08-17T19:18:21.752Z,70.70
2018-08-17T19:20:52.829Z,70.40
2018-08-17T19:23:23.146Z,70.50
2018-08-17T19:25:53.489Z,70.60
2018-08-17T19:28:24.569Z,70.70
2018-08-17T19:30:55.014Z,70.70
2018-08-17T19:33:26.138Z,70.50
2018-08-17T19:35:56.639Z,71.30
2018-08-17T19:38:27.956Z,71.90
2018-08-17T19:40:58.470Z,72.60
2018-08-17T19:43:29.457Z,72.80
2018-08-17T19:46:00.029Z,72.80
2018-08-17T19:48:30.446Z,72.90
2018-08-17T19:51:01.093Z,72.70
2018-08-17T19:53:31.446Z,72.30
2018-08-17T19:56:04.006Z,72.10
2018-08-17T19:58:34.337Z,72.30
2018-08-17T20:01:05.706Z,72.10
2018-08-17T20:03:36.048Z,71.80
2018-08-17T20:06:07.269Z,72.20
2018-08-17T20:08:38.965Z,71.90
2018-08-17T20:11:09.616Z,71.40
2018-08-17T20:13:40.979Z,71.20
2018-08-17T20:16:19.133Z,70.80
2018-08-17T20:18:49.974Z,70.80
2018-08-17T20:21:25.645Z,70.50
2018-08-17T20:23:56.622Z,70.30
2018-08-17T20:26:31.203Z,69.90
2018-08-17T20:29:02.537Z,69.80
2018-08-17T20:31:37.538Z,69.60
2018-08-17T20:34:08.831Z,69.80
2018-08-17T20:36:40.020Z,69.60
2018-08-17T20:39:13.892Z,69.80
2018-08-17T20:41:45.676Z,70.50
2018-08-17T20:44:17.207Z,70.90
2018-08-17T20:46:49.766Z,70.90
2018-08-17T20:49:21.835Z,70.70
2018-08-17T20:51:59.213Z,70.60
2018-08-17T20:54:31.284Z,70.50
2018-08-17T20:57:02.892Z,70.20
2018-08-17T20:59:34.625Z,70.00
2018-08-17T21:02:05.784Z,69.70
2018-08-17T21:04:37.252Z,69.70
2018-08-17T21:07:08.708Z,69.50
2018-08-17T21:09:40.952Z,69.40
2018-08-17T21:12:13.147Z,69.20
2018-08-17T21:14:46.194Z,68.90
2018-08-17T21:17:17.999Z,68.60
2018-08-17T21:19:49.965Z,68.60
2018-08-17T21:22:22.505Z,69.00
2018-08-17T21:24:56.058Z,69.00
2018-08-17T21:27:27.977Z,70.10
2018-08-17T21:29:59.977Z,69.60
2018-08-17T21:32:31.760Z,69.70
2018-08-17T21:35:04.117Z,70.50
2018-08-17T21:37:36.218Z,70.80
2018-08-17T21:40:20.546Z,70.60
2018-08-17T21:42:52.073Z,70.70
2018-08-17T21:45:24.453Z,70.80
2018-08-17T21:47:55.413Z,70.80
2018-08-17T21:50:26.422Z,70.70
2018-08-17T21:52:57.886Z,70.40
2018-08-17T21:55:28.838Z,70.20
2018-08-17T21:58:00.010Z,70.50
2018-08-17T22:00:33.512Z,69.80
2018-08-17T22:03:17.705Z,69.50
2018-08-17T22:05:49.630Z,69.50
2018-08-17T22:08:21.692Z,69.80
2018-08-17T22:10:52.702Z,69.90
2018-08-17T22:13:32.805Z,70.10
2018-08-17T22:16:03.782Z,70.30
2018-08-17T22:20:41.457Z,70.60
2018-08-17T22:23:12.428Z,70.60
2018-08-17T22:25:42.913Z,70.90
2018-08-17T22:28:13.610Z,71.30
2018-08-17T22:30:44.162Z,71.50
2018-08-17T22:33:15.256Z,71.80
2018-08-17T22:35:47.750Z,71.80
2018-08-17T22:38:18.839Z,71.60
2018-08-17T22:40:50.037Z,71.30
2018-08-17T22:43:20.977Z,70.70
2018-08-17T22:45:51.946Z,70.40
2018-08-17T22:48:22.546Z,70.80
2018-08-17T22:50:57.344Z,70.10
2018-08-17T22:53:28.870Z,69.80
2018-08-17T22:55:59.372Z,69.70
2018-08-17T22:58:35.184Z,69.80
2018-08-17T23:01:05.685Z,69.80
2018-08-17T23:03:40.575Z,70.20
2018-08-17T23:06:11.385Z,70.20
2018-08-17T23:08:42.295Z,69.80
2018-08-17T23:11:37.453Z,69.40
2018-08-17T23:14:13.077Z,69.40
2018-08-17T23:16:44.710Z,68.40
2018-08-17T23:19:15.141Z,67.80
2018-08-17T23:21:45.775Z,67.00
2018-08-17T23:24:16.571Z,66.90
2018-08-17T23:26:47.087Z,66.40
2018-08-17T23:29:18.163Z,66.30
2018-08-17T23:31:48.686Z,66.20
2018-08-17T23:34:19.578Z,65.90
2018-08-17T23:36:49.910Z,65.80
2018-08-17T23:39:20.641Z,65.30
2018-08-17T23:41:51.062Z,64.90
2018-08-17T23:44:21.482Z,64.60
2018-08-17T23:46:51.984Z,64.50
2018-08-17T23:49:22.773Z,64.30
2018-08-17T23:51:53.205Z,64.30
2018-08-17T23:54:24.150Z,64.60
2018-08-17T23:56:55.829Z,64.80
2018-08-17T23:59:29.548Z,65.20
